sensor_id;sensor_type;location;lat;lon;timestamp;P1;durP1;ratioP1;P2;durP2;ratioP2
72728;SDS011;60843;52.062;4.508;2023-02-28T00:01:01;3.70;;;1.87;;
72728;SDS011;60843;52.062;4.508;2023-02-28T00:03:27;3.50;;;1.65;;
72728;SDS011;60843;52.062;4.508;2023-02-28T00:05:52;7.38;;;1.58;;
72728;SDS011;60843;52.062;4.508;2023-02-28T00:08:18;3.03;;;1.70;;
72728;SDS011;60843;52.062;4.508;2023-02-28T00:10:43;2.63;;;1.30;;
72728;SDS011;60843;52.062;4.508;2023-02-28T00:13:09;2.42;;;1.50;;
72728;SDS011;60843;52.062;4.508;2023-02-28T00:15:36;3.50;;;1.63;;
72728;SDS011;60843;52.062;4.508;2023-02-28T00:18:01;4.53;;;1.52;;
72728;SDS011;60843;52.062;4.508;2023-02-28T00:20:28;5.40;;;1.92;;
72728;SDS011;60843;52.062;4.508;2023-02-28T00:22:54;3.88;;;1.60;;
72728;SDS011;60843;52.062;4.508;2023-02-28T00:25:23;5.40;;;1.63;;
72728;SDS011;60843;52.062;4.508;2023-02-28T00:27:50;3.42;;;1.70;;
72728;SDS011;60843;52.062;4.508;2023-02-28T00:30:17;3.95;;;1.67;;
72728;SDS011;60843;52.062;4.508;2023-02-28T00:32:47;2.53;;;1.33;;
72728;SDS011;60843;52.062;4.508;2023-02-28T00:35:13;5.88;;;1.70;;
72728;SDS011;60843;52.062;4.508;2023-02-28T00:37:38;4.60;;;1.88;;
72728;SDS011;60843;52.062;4.508;2023-02-28T00:40:04;8.43;;;1.80;;
72728;SDS011;60843;52.062;4.508;2023-02-28T00:42:31;3.95;;;1.90;;
72728;SDS011;60843;52.062;4.508;2023-02-28T00:44:57;5.00;;;1.70;;
72728;SDS011;60843;52.062;4.508;2023-02-28T00:47:23;3.70;;;1.77;;
72728;SDS011;60843;52.062;4.508;2023-02-28T00:49:48;5.47;;;1.58;;
72728;SDS011;60843;52.062;4.508;2023-02-28T00:52:14;5.15;;;1.67;;
72728;SDS011;60843;52.062;4.508;2023-02-28T00:54:39;4.50;;;1.63;;
72728;SDS011;60843;52.062;4.508;2023-02-28T00:57:05;8.57;;;2.28;;
72728;SDS011;60843;52.062;4.508;2023-02-28T00:59:31;2.80;;;1.52;;
72728;SDS011;60843;52.062;4.508;2023-02-28T01:01:56;3.58;;;1.38;;
72728;SDS011;60843;52.062;4.508;2023-02-28T01:04:22;3.22;;;1.73;;
72728;SDS011;60843;52.062;4.508;2023-02-28T01:06:47;3.13;;;1.55;;
72728;SDS011;60843;52.062;4.508;2023-02-28T01:09:13;5.47;;;1.80;;
72728;SDS011;60843;52.062;4.508;2023-02-28T01:11:38;2.97;;;1.90;;
72728;SDS011;60843;52.062;4.508;2023-02-28T01:14:05;5.15;;;1.67;;
72728;SDS011;60843;52.062;4.508;2023-02-28T01:16:31;3.78;;;1.85;;
72728;SDS011;60843;52.062;4.508;2023-02-28T01:18:56;4.72;;;2.13;;
72728;SDS011;60843;52.062;4.508;2023-02-28T01:21:22;3.00;;;1.50;;
72728;SDS011;60843;52.062;4.508;2023-02-28T01:23:48;3.60;;;1.92;;
72728;SDS011;60843;52.062;4.508;2023-02-28T01:26:16;4.35;;;2.30;;
72728;SDS011;60843;52.062;4.508;2023-02-28T01:28:45;4.10;;;1.80;;
72728;SDS011;60843;52.062;4.508;2023-02-28T02:00:11;3.75;;;2.22;;
72728;SDS011;60843;52.062;4.508;2023-02-28T02:02:40;4.78;;;1.98;;
72728;SDS011;60843;52.062;4.508;2023-02-28T02:05:09;5.95;;;2.53;;
72728;SDS011;60843;52.062;4.508;2023-02-28T02:17:44;5.65;;;1.83;;
72728;SDS011;60843;52.062;4.508;2023-02-28T02:23:51;4.57;;;2.03;;
72728;SDS011;60843;52.062;4.508;2023-02-28T02:37:27;6.57;;;2.53;;
72728;SDS011;60843;52.062;4.508;2023-02-28T02:40:18;6.25;;;2.25;;
72728;SDS011;60843;52.062;4.508;2023-02-28T02:42:59;5.88;;;2.17;;
72728;SDS011;60843;52.062;4.508;2023-02-28T02:45:47;3.25;;;2.00;;
72728;SDS011;60843;52.062;4.508;2023-02-28T02:48:17;5.85;;;2.05;;
72728;SDS011;60843;52.062;4.508;2023-02-28T02:50:47;3.65;;;2.17;;
72728;SDS011;60843;52.062;4.508;2023-02-28T02:53:15;5.53;;;2.50;;
72728;SDS011;60843;52.062;4.508;2023-02-28T02:55:43;3.03;;;1.88;;
72728;SDS011;60843;52.062;4.508;2023-02-28T02:58:13;6.53;;;3.45;;
72728;SDS011;60843;52.062;4.508;2023-02-28T03:00:41;6.97;;;2.47;;
72728;SDS011;60843;52.062;4.508;2023-02-28T03:03:09;7.93;;;2.90;;
72728;SDS011;60843;52.062;4.508;2023-02-28T03:08:08;5.72;;;2.13;;
72728;SDS011;60843;52.062;4.508;2023-02-28T03:10:37;5.53;;;2.50;;
72728;SDS011;60843;52.062;4.508;2023-02-28T03:24:18;4.25;;;1.77;;
72728;SDS011;60843;52.062;4.508;2023-02-28T03:27:07;5.93;;;2.60;;
72728;SDS011;60843;52.062;4.508;2023-02-28T03:29:37;5.43;;;2.97;;
72728;SDS011;60843;52.062;4.508;2023-02-28T03:32:08;6.15;;;2.47;;
72728;SDS011;60843;52.062;4.508;2023-02-28T03:35:03;9.82;;;2.88;;
72728;SDS011;60843;52.062;4.508;2023-02-28T03:37:46;6.70;;;3.40;;
72728;SDS011;60843;52.062;4.508;2023-02-28T03:40:17;7.43;;;2.72;;
72728;SDS011;60843;52.062;4.508;2023-02-28T03:42:47;9.13;;;4.03;;
72728;SDS011;60843;52.062;4.508;2023-02-28T03:45:24;6.40;;;3.22;;
72728;SDS011;60843;52.062;4.508;2023-02-28T03:47:57;5.90;;;2.75;;
72728;SDS011;60843;52.062;4.508;2023-02-28T03:50:26;7.45;;;3.35;;
72728;SDS011;60843;52.062;4.508;2023-02-28T03:52:56;5.93;;;2.95;;
72728;SDS011;60843;52.062;4.508;2023-02-28T03:55:28;6.35;;;3.33;;
72728;SDS011;60843;52.062;4.508;2023-02-28T03:58:05;7.30;;;2.97;;
72728;SDS011;60843;52.062;4.508;2023-02-28T04:00:38;7.20;;;3.22;;
72728;SDS011;60843;52.062;4.508;2023-02-28T04:05:49;8.55;;;3.33;;
72728;SDS011;60843;52.062;4.508;2023-02-28T04:08:16;7.55;;;3.40;;
72728;SDS011;60843;52.062;4.508;2023-02-28T04:10:42;7.25;;;3.13;;
72728;SDS011;60843;52.062;4.508;2023-02-28T04:13:10;6.03;;;3.30;;
72728;SDS011;60843;52.062;4.508;2023-02-28T04:15:36;8.75;;;3.45;;
72728;SDS011;60843;52.062;4.508;2023-02-28T04:18:03;5.28;;;3.03;;
72728;SDS011;60843;52.062;4.508;2023-02-28T04:20:30;7.53;;;3.70;;
72728;SDS011;60843;52.062;4.508;2023-02-28T04:22:56;6.55;;;3.45;;
72728;SDS011;60843;52.062;4.508;2023-02-28T04:25:22;9.35;;;3.30;;
72728;SDS011;60843;52.062;4.508;2023-02-28T04:27:47;7.60;;;3.50;;
72728;SDS011;60843;52.062;4.508;2023-02-28T04:30:13;6.57;;;3.60;;
72728;SDS011;60843;52.062;4.508;2023-02-28T04:32:39;6.90;;;3.42;;
72728;SDS011;60843;52.062;4.508;2023-02-28T04:35:07;7.80;;;3.75;;
72728;SDS011;60843;52.062;4.508;2023-02-28T04:37:33;7.00;;;3.55;;
72728;SDS011;60843;52.062;4.508;2023-02-28T04:40:00;7.68;;;3.83;;
72728;SDS011;60843;52.062;4.508;2023-02-28T04:42:26;12.00;;;3.83;;
72728;SDS011;60843;52.062;4.508;2023-02-28T04:44:52;6.22;;;3.50;;
72728;SDS011;60843;52.062;4.508;2023-02-28T04:47:17;8.55;;;4.47;;
72728;SDS011;60843;52.062;4.508;2023-02-28T04:49:43;6.15;;;3.75;;
72728;SDS011;60843;52.062;4.508;2023-02-28T04:52:08;11.48;;;3.95;;
72728;SDS011;60843;52.062;4.508;2023-02-28T04:54:35;10.93;;;4.03;;
72728;SDS011;60843;52.062;4.508;2023-02-28T04:57:03;11.27;;;4.05;;
72728;SDS011;60843;52.062;4.508;2023-02-28T04:59:30;9.45;;;4.25;;
72728;SDS011;60843;52.062;4.508;2023-02-28T05:01:55;6.10;;;4.00;;
72728;SDS011;60843;52.062;4.508;2023-02-28T05:04:20;6.43;;;3.87;;
72728;SDS011;60843;52.062;4.508;2023-02-28T05:06:46;11.93;;;4.32;;
72728;SDS011;60843;52.062;4.508;2023-02-28T05:09:12;6.57;;;3.85;;
72728;SDS011;60843;52.062;4.508;2023-02-28T05:11:38;6.05;;;3.90;;
72728;SDS011;60843;52.062;4.508;2023-02-28T05:14:05;7.95;;;3.88;;
72728;SDS011;60843;52.062;4.508;2023-02-28T05:16:40;7.90;;;4.40;;
72728;SDS011;60843;52.062;4.508;2023-02-28T05:19:05;9.20;;;3.88;;
72728;SDS011;60843;52.062;4.508;2023-02-28T05:24:07;8.82;;;3.97;;
72728;SDS011;60843;52.062;4.508;2023-02-28T05:26:35;6.85;;;4.13;;
72728;SDS011;60843;52.062;4.508;2023-02-28T05:29:05;7.95;;;3.40;;
72728;SDS011;60843;52.062;4.508;2023-02-28T05:31:31;9.63;;;4.28;;
72728;SDS011;60843;52.062;4.508;2023-02-28T05:33:57;10.00;;;3.53;;
72728;SDS011;60843;52.062;4.508;2023-02-28T05:36:37;6.78;;;3.53;;
72728;SDS011;60843;52.062;4.508;2023-02-28T05:39:04;11.65;;;3.63;;
72728;SDS011;60843;52.062;4.508;2023-02-28T05:41:31;11.77;;;3.70;;
72728;SDS011;60843;52.062;4.508;2023-02-28T05:43:57;7.22;;;3.75;;
72728;SDS011;60843;52.062;4.508;2023-02-28T05:46:23;7.38;;;3.47;;
72728;SDS011;60843;52.062;4.508;2023-02-28T05:48:48;7.80;;;3.58;;
72728;SDS011;60843;52.062;4.508;2023-02-28T05:51:15;7.57;;;3.60;;
72728;SDS011;60843;52.062;4.508;2023-02-28T05:53:40;5.78;;;3.65;;
72728;SDS011;60843;52.062;4.508;2023-02-28T05:56:06;9.32;;;4.13;;
72728;SDS011;60843;52.062;4.508;2023-02-28T05:58:32;8.50;;;4.07;;
72728;SDS011;60843;52.062;4.508;2023-02-28T06:01:00;8.63;;;3.50;;
72728;SDS011;60843;52.062;4.508;2023-02-28T06:03:44;8.45;;;3.67;;
72728;SDS011;60843;52.062;4.508;2023-02-28T06:06:09;7.03;;;3.33;;
72728;SDS011;60843;52.062;4.508;2023-02-28T06:08:35;10.07;;;3.60;;
72728;SDS011;60843;52.062;4.508;2023-02-28T06:11:02;7.43;;;3.78;;
72728;SDS011;60843;52.062;4.508;2023-02-28T06:13:28;9.52;;;3.97;;
72728;SDS011;60843;52.062;4.508;2023-02-28T06:15:54;8.90;;;3.53;;
72728;SDS011;60843;52.062;4.508;2023-02-28T06:18:21;10.88;;;3.67;;
72728;SDS011;60843;52.062;4.508;2023-02-28T06:20:54;8.65;;;3.15;;
72728;SDS011;60843;52.062;4.508;2023-02-28T06:23:20;8.60;;;4.07;;
72728;SDS011;60843;52.062;4.508;2023-02-28T06:25:46;9.85;;;3.90;;
72728;SDS011;60843;52.062;4.508;2023-02-28T06:28:12;9.30;;;3.72;;
72728;SDS011;60843;52.062;4.508;2023-02-28T06:30:38;8.13;;;4.22;;
72728;SDS011;60843;52.062;4.508;2023-02-28T06:33:04;9.13;;;4.95;;
72728;SDS011;60843;52.062;4.508;2023-02-28T06:35:30;10.25;;;4.53;;
72728;SDS011;60843;52.062;4.508;2023-02-28T06:37:56;5.75;;;3.88;;
72728;SDS011;60843;52.062;4.508;2023-02-28T06:40:21;12.88;;;3.97;;
72728;SDS011;60843;52.062;4.508;2023-02-28T06:42:47;8.98;;;4.30;;
72728;SDS011;60843;52.062;4.508;2023-02-28T06:45:13;7.85;;;3.30;;
72728;SDS011;60843;52.062;4.508;2023-02-28T06:47:39;6.20;;;3.65;;
72728;SDS011;60843;52.062;4.508;2023-02-28T06:50:06;5.10;;;2.67;;
72728;SDS011;60843;52.062;4.508;2023-02-28T06:52:32;6.07;;;3.03;;
72728;SDS011;60843;52.062;4.508;2023-02-28T06:55:01;7.55;;;3.15;;
72728;SDS011;60843;52.062;4.508;2023-02-28T06:57:37;5.90;;;3.10;;
72728;SDS011;60843;52.062;4.508;2023-02-28T07:00:08;3.15;;;2.53;;
72728;SDS011;60843;52.062;4.508;2023-02-28T07:02:35;5.75;;;2.13;;
72728;SDS011;60843;52.062;4.508;2023-02-28T07:05:02;3.38;;;1.98;;
72728;SDS011;60843;52.062;4.508;2023-02-28T07:07:31;3.22;;;2.03;;
72728;SDS011;60843;52.062;4.508;2023-02-28T07:09:57;2.92;;;1.77;;
72728;SDS011;60843;52.062;4.508;2023-02-28T07:12:23;5.75;;;1.95;;
72728;SDS011;60843;52.062;4.508;2023-02-28T07:14:48;4.40;;;2.33;;
72728;SDS011;60843;52.062;4.508;2023-02-28T07:17:14;5.05;;;2.45;;
72728;SDS011;60843;52.062;4.508;2023-02-28T07:19:39;5.03;;;1.97;;
72728;SDS011;60843;52.062;4.508;2023-02-28T07:22:05;3.55;;;1.90;;
72728;SDS011;60843;52.062;4.508;2023-02-28T07:24:31;3.65;;;2.22;;
72728;SDS011;60843;52.062;4.508;2023-02-28T07:26:57;4.00;;;2.33;;
72728;SDS011;60843;52.062;4.508;2023-02-28T07:29:22;5.03;;;2.80;;
72728;SDS011;60843;52.062;4.508;2023-02-28T07:31:48;4.28;;;3.17;;
72728;SDS011;60843;52.062;4.508;2023-02-28T07:34:18;4.88;;;2.10;;
72728;SDS011;60843;52.062;4.508;2023-02-28T07:36:44;5.80;;;3.03;;
72728;SDS011;60843;52.062;4.508;2023-02-28T07:39:10;6.53;;;3.22;;
72728;SDS011;60843;52.062;4.508;2023-02-28T07:41:36;7.25;;;3.25;;
72728;SDS011;60843;52.062;4.508;2023-02-28T07:44:08;5.85;;;2.50;;
72728;SDS011;60843;52.062;4.508;2023-02-28T07:46:34;5.40;;;3.15;;
72728;SDS011;60843;52.062;4.508;2023-02-28T07:49:01;5.25;;;3.20;;
72728;SDS011;60843;52.062;4.508;2023-02-28T07:51:28;7.18;;;3.30;;
72728;SDS011;60843;52.062;4.508;2023-02-28T07:53:54;5.03;;;2.88;;
72728;SDS011;60843;52.062;4.508;2023-02-28T07:56:20;5.75;;;3.55;;
72728;SDS011;60843;52.062;4.508;2023-02-28T07:58:45;5.82;;;3.75;;
72728;SDS011;60843;52.062;4.508;2023-02-28T08:01:11;6.93;;;3.20;;
72728;SDS011;60843;52.062;4.508;2023-02-28T08:03:37;5.95;;;3.10;;
72728;SDS011;60843;52.062;4.508;2023-02-28T08:06:03;4.15;;;2.42;;
72728;SDS011;60843;52.062;4.508;2023-02-28T08:08:30;8.40;;;3.53;;
72728;SDS011;60843;52.062;4.508;2023-02-28T08:10:59;8.65;;;4.05;;
72728;SDS011;60843;52.062;4.508;2023-02-28T08:13:26;6.25;;;3.80;;
72728;SDS011;60843;52.062;4.508;2023-02-28T08:15:52;9.13;;;4.30;;
72728;SDS011;60843;52.062;4.508;2023-02-28T08:21:58;7.63;;;4.00;;
72728;SDS011;60843;52.062;4.508;2023-02-28T08:27:46;6.07;;;3.50;;
72728;SDS011;60843;52.062;4.508;2023-02-28T08:43:08;9.70;;;4.93;;
72728;SDS011;60843;52.062;4.508;2023-02-28T08:48:56;8.57;;;4.55;;
72728;SDS011;60843;52.062;4.508;2023-02-28T08:54:48;8.80;;;4.72;;
72728;SDS011;60843;52.062;4.508;2023-02-28T09:00:36;10.18;;;4.40;;
72728;SDS011;60843;52.062;4.508;2023-02-28T09:09:54;8.88;;;4.43;;
72728;SDS011;60843;52.062;4.508;2023-02-28T09:15:41;11.07;;;4.57;;
72728;SDS011;60843;52.062;4.508;2023-02-28T09:21:29;8.60;;;4.97;;
72728;SDS011;60843;52.062;4.508;2023-02-28T09:27:18;8.48;;;4.50;;
72728;SDS011;60843;52.062;4.508;2023-02-28T09:33:05;10.40;;;5.15;;
72728;SDS011;60843;52.062;4.508;2023-02-28T09:45:39;9.40;;;3.88;;
72728;SDS011;60843;52.062;4.508;2023-02-28T09:58:20;6.95;;;3.53;;
72728;SDS011;60843;52.062;4.508;2023-02-28T10:01:28;6.20;;;3.75;;
72728;SDS011;60843;52.062;4.508;2023-02-28T10:04:03;6.03;;;3.20;;
72728;SDS011;60843;52.062;4.508;2023-02-28T10:06:30;7.38;;;3.60;;
72728;SDS011;60843;52.062;4.508;2023-02-28T10:09:03;5.85;;;2.92;;
72728;SDS011;60843;52.062;4.508;2023-02-28T10:11:32;9.43;;;3.40;;
72728;SDS011;60843;52.062;4.508;2023-02-28T10:16:29;6.40;;;3.03;;
72728;SDS011;60843;52.062;4.508;2023-02-28T10:24:32;9.73;;;3.15;;
72728;SDS011;60843;52.062;4.508;2023-02-28T10:27:05;4.57;;;2.80;;
72728;SDS011;60843;52.062;4.508;2023-02-28T10:29:38;6.95;;;3.08;;
72728;SDS011;60843;52.062;4.508;2023-02-28T10:32:05;4.85;;;3.13;;
72728;SDS011;60843;52.062;4.508;2023-02-28T10:34:31;5.95;;;3.30;;
72728;SDS011;60843;52.062;4.508;2023-02-28T10:36:57;7.32;;;3.65;;
72728;SDS011;60843;52.062;4.508;2023-02-28T10:42:01;3.83;;;2.33;;
72728;SDS011;60843;52.062;4.508;2023-02-28T10:44:26;6.47;;;2.37;;
72728;SDS011;60843;52.062;4.508;2023-02-28T10:46:52;3.35;;;2.13;;
72728;SDS011;60843;52.062;4.508;2023-02-28T10:49:22;4.88;;;2.25;;
72728;SDS011;60843;52.062;4.508;2023-02-28T10:51:52;3.38;;;2.00;;
72728;SDS011;60843;52.062;4.508;2023-02-28T10:54:43;3.38;;;2.30;;
72728;SDS011;60843;52.062;4.508;2023-02-28T10:57:20;3.95;;;2.35;;
72728;SDS011;60843;52.062;4.508;2023-02-28T10:59:52;4.78;;;2.40;;
72728;SDS011;60843;52.062;4.508;2023-02-28T11:02:31;4.18;;;2.55;;
72728;SDS011;60843;52.062;4.508;2023-02-28T11:04:58;4.80;;;2.42;;
72728;SDS011;60843;52.062;4.508;2023-02-28T11:07:25;2.20;;;1.35;;
72728;SDS011;60843;52.062;4.508;2023-02-28T11:09:51;3.85;;;1.83;;
72728;SDS011;60843;52.062;4.508;2023-02-28T11:12:22;6.63;;;2.03;;
72728;SDS011;60843;52.062;4.508;2023-02-28T11:14:52;3.55;;;2.00;;
72728;SDS011;60843;52.062;4.508;2023-02-28T11:17:24;4.50;;;1.88;;
72728;SDS011;60843;52.062;4.508;2023-02-28T11:19:56;4.75;;;2.28;;
72728;SDS011;60843;52.062;4.508;2023-02-28T11:22:24;3.97;;;2.25;;
72728;SDS011;60843;52.062;4.508;2023-02-28T11:24:59;3.47;;;2.22;;
72728;SDS011;60843;52.062;4.508;2023-02-28T11:27:40;3.70;;;1.83;;
72728;SDS011;60843;52.062;4.508;2023-02-28T11:30:31;2.90;;;1.42;;
72728;SDS011;60843;52.062;4.508;2023-02-28T11:33:24;4.53;;;1.90;;
72728;SDS011;60843;52.062;4.508;2023-02-28T11:35:53;5.15;;;2.00;;
72728;SDS011;60843;52.062;4.508;2023-02-28T11:38:24;2.85;;;1.95;;
72728;SDS011;60843;52.062;4.508;2023-02-28T11:40:55;3.05;;;2.00;;
72728;SDS011;60843;52.062;4.508;2023-02-28T11:43:40;4.15;;;2.13;;
72728;SDS011;60843;52.062;4.508;2023-02-28T11:49:27;4.40;;;1.85;;
72728;SDS011;60843;52.062;4.508;2023-02-28T11:57:43;5.28;;;1.85;;
72728;SDS011;60843;52.062;4.508;2023-02-28T12:03:08;3.05;;;1.65;;
72728;SDS011;60843;52.062;4.508;2023-02-28T12:09:16;2.58;;;1.70;;
72728;SDS011;60843;52.062;4.508;2023-02-28T12:23:06;2.75;;;1.38;;
72728;SDS011;60843;52.062;4.508;2023-02-28T12:28:24;1.60;;;1.23;;
72728;SDS011;60843;52.062;4.508;2023-02-28T12:33:43;2.70;;;1.42;;
72728;SDS011;60843;52.062;4.508;2023-02-28T12:36:12;5.03;;;1.63;;
72728;SDS011;60843;52.062;4.508;2023-02-28T12:38:45;3.97;;;1.80;;
72728;SDS011;60843;52.062;4.508;2023-02-28T12:43:49;2.28;;;1.05;;
72728;SDS011;60843;52.062;4.508;2023-02-28T12:46:19;4.13;;;1.17;;
72728;SDS011;60843;52.062;4.508;2023-02-28T12:48:50;2.13;;;1.40;;
72728;SDS011;60843;52.062;4.508;2023-02-28T12:51:18;2.75;;;1.58;;
72728;SDS011;60843;52.062;4.508;2023-02-28T12:59:59;1.63;;;1.35;;
72728;SDS011;60843;52.062;4.508;2023-02-28T13:02:52;2.83;;;1.38;;
72728;SDS011;60843;52.062;4.508;2023-02-28T13:05:46;3.70;;;1.60;;
72728;SDS011;60843;52.062;4.508;2023-02-28T13:14:04;3.05;;;1.02;;
72728;SDS011;60843;52.062;4.508;2023-02-28T13:19:40;2.30;;;1.30;;
72728;SDS011;60843;52.062;4.508;2023-02-28T13:22:17;1.95;;;1.42;;
72728;SDS011;60843;52.062;4.508;2023-02-28T13:24:47;4.57;;;1.60;;
72728;SDS011;60843;52.062;4.508;2023-02-28T13:27:24;8.65;;;1.73;;
72728;SDS011;60843;52.062;4.508;2023-02-28T13:29:58;3.17;;;1.23;;
72728;SDS011;60843;52.062;4.508;2023-02-28T13:32:31;2.15;;;1.30;;
72728;SDS011;60843;52.062;4.508;2023-02-28T13:42:33;3.90;;;1.37;;
72728;SDS011;60843;52.062;4.508;2023-02-28T13:47:34;1.50;;;1.20;;
72728;SDS011;60843;52.062;4.508;2023-02-28T13:58:35;2.60;;;1.35;;
72728;SDS011;60843;52.062;4.508;2023-02-28T14:07:01;1.92;;;1.40;;
72728;SDS011;60843;52.062;4.508;2023-02-28T14:09:28;3.20;;;1.60;;
72728;SDS011;60843;52.062;4.508;2023-02-28T14:15:04;2.10;;;1.55;;
72728;SDS011;60843;52.062;4.508;2023-02-28T14:17:51;3.58;;;1.55;;
72728;SDS011;60843;52.062;4.508;2023-02-28T14:20:17;4.03;;;1.13;;
72728;SDS011;60843;52.062;4.508;2023-02-28T14:22:55;3.20;;;1.25;;
72728;SDS011;60843;52.062;4.508;2023-02-28T14:31:13;2.40;;;1.40;;
72728;SDS011;60843;52.062;4.508;2023-02-28T14:38:57;2.05;;;1.42;;
72728;SDS011;60843;52.062;4.508;2023-02-28T14:41:31;2.20;;;1.42;;
72728;SDS011;60843;52.062;4.508;2023-02-28T14:44:12;2.65;;;1.42;;
72728;SDS011;60843;52.062;4.508;2023-02-28T14:46:44;1.90;;;1.33;;
72728;SDS011;60843;52.062;4.508;2023-02-28T14:49:13;1.70;;;1.17;;
72728;SDS011;60843;52.062;4.508;2023-02-28T14:54:35;1.92;;;1.20;;
72728;SDS011;60843;52.062;4.508;2023-02-28T14:57:02;1.52;;;1.10;;
72728;SDS011;60843;52.062;4.508;2023-02-28T14:59:29;2.83;;;1.23;;
72728;SDS011;60843;52.062;4.508;2023-02-28T15:04:41;1.38;;;0.90;;
72728;SDS011;60843;52.062;4.508;2023-02-28T15:07:11;2.47;;;1.48;;
72728;SDS011;60843;52.062;4.508;2023-02-28T15:09:39;3.25;;;1.13;;
72728;SDS011;60843;52.062;4.508;2023-02-28T15:12:05;2.25;;;1.30;;
72728;SDS011;60843;52.062;4.508;2023-02-28T15:14:30;1.58;;;1.25;;
72728;SDS011;60843;52.062;4.508;2023-02-28T15:16:58;3.65;;;1.50;;
72728;SDS011;60843;52.062;4.508;2023-02-28T15:19:28;1.25;;;1.02;;
72728;SDS011;60843;52.062;4.508;2023-02-28T15:22:00;2.28;;;1.20;;
72728;SDS011;60843;52.062;4.508;2023-02-28T15:24:33;1.05;;;0.70;;
72728;SDS011;60843;52.062;4.508;2023-02-28T15:30:00;1.90;;;1.30;;
72728;SDS011;60843;52.062;4.508;2023-02-28T15:32:32;1.30;;;1.00;;
72728;SDS011;60843;52.062;4.508;2023-02-28T15:34:59;1.10;;;0.80;;
72728;SDS011;60843;52.062;4.508;2023-02-28T15:38:12;1.92;;;0.98;;
72728;SDS011;60843;52.062;4.508;2023-02-28T15:40:43;2.40;;;1.52;;
72728;SDS011;60843;52.062;4.508;2023-02-28T15:43:23;4.25;;;1.60;;
72728;SDS011;60843;52.062;4.508;2023-02-28T15:48:17;2.92;;;1.23;;
72728;SDS011;60843;52.062;4.508;2023-02-28T15:50:55;3.40;;;1.35;;
72728;SDS011;60843;52.062;4.508;2023-02-28T15:53:24;2.03;;;1.23;;
72728;SDS011;60843;52.062;4.508;2023-02-28T15:56:05;1.77;;;1.20;;
72728;SDS011;60843;52.062;4.508;2023-02-28T15:58:34;3.45;;;1.60;;
72728;SDS011;60843;52.062;4.508;2023-02-28T16:01:05;2.92;;;1.40;;
72728;SDS011;60843;52.062;4.508;2023-02-28T16:03:44;1.90;;;1.50;;
72728;SDS011;60843;52.062;4.508;2023-02-28T16:08:56;1.48;;;0.93;;
72728;SDS011;60843;52.062;4.508;2023-02-28T16:11:21;1.65;;;1.27;;
72728;SDS011;60843;52.062;4.508;2023-02-28T16:13:47;1.88;;;1.08;;
72728;SDS011;60843;52.062;4.508;2023-02-28T16:16:21;2.28;;;1.33;;
72728;SDS011;60843;52.062;4.508;2023-02-28T16:18:48;2.33;;;1.30;;
72728;SDS011;60843;52.062;4.508;2023-02-28T16:21:13;1.30;;;1.00;;
72728;SDS011;60843;52.062;4.508;2023-02-28T16:23:39;2.30;;;1.42;;
72728;SDS011;60843;52.062;4.508;2023-02-28T16:26:05;2.20;;;1.38;;
72728;SDS011;60843;52.062;4.508;2023-02-28T16:28:31;2.22;;;1.35;;
72728;SDS011;60843;52.062;4.508;2023-02-28T16:30:59;2.30;;;1.70;;
72728;SDS011;60843;52.062;4.508;2023-02-28T16:33:27;2.65;;;1.42;;
72728;SDS011;60843;52.062;4.508;2023-02-28T16:35:53;3.55;;;1.73;;
72728;SDS011;60843;52.062;4.508;2023-02-28T16:38:18;2.63;;;1.67;;
72728;SDS011;60843;52.062;4.508;2023-02-28T16:40:44;3.08;;;1.75;;
72728;SDS011;60843;52.062;4.508;2023-02-28T16:43:13;3.25;;;1.75;;
72728;SDS011;60843;52.062;4.508;2023-02-28T16:45:41;1.67;;;1.27;;
72728;SDS011;60843;52.062;4.508;2023-02-28T16:48:08;4.00;;;1.88;;
72728;SDS011;60843;52.062;4.508;2023-02-28T16:50:37;2.28;;;1.60;;
72728;SDS011;60843;52.062;4.508;2023-02-28T16:53:02;3.00;;;1.70;;
72728;SDS011;60843;52.062;4.508;2023-02-28T16:55:28;2.75;;;1.67;;
72728;SDS011;60843;52.062;4.508;2023-02-28T16:57:57;1.90;;;1.50;;
72728;SDS011;60843;52.062;4.508;2023-02-28T17:00:24;3.75;;;1.88;;
72728;SDS011;60843;52.062;4.508;2023-02-28T17:02:52;2.80;;;1.20;;
72728;SDS011;60843;52.062;4.508;2023-02-28T17:05:18;2.15;;;1.60;;
72728;SDS011;60843;52.062;4.508;2023-02-28T17:07:44;3.88;;;2.15;;
72728;SDS011;60843;52.062;4.508;2023-02-28T17:10:17;3.38;;;2.03;;
72728;SDS011;60843;52.062;4.508;2023-02-28T17:12:45;2.58;;;2.00;;
72728;SDS011;60843;52.062;4.508;2023-02-28T17:15:11;2.92;;;1.98;;
72728;SDS011;60843;52.062;4.508;2023-02-28T17:17:38;2.58;;;1.60;;
72728;SDS011;60843;52.062;4.508;2023-02-28T17:20:04;2.83;;;1.33;;
72728;SDS011;60843;52.062;4.508;2023-02-28T17:22:31;4.90;;;2.15;;
72728;SDS011;60843;52.062;4.508;2023-02-28T17:24:57;2.78;;;2.05;;
72728;SDS011;60843;52.062;4.508;2023-02-28T17:27:31;8.00;;;2.10;;
72728;SDS011;60843;52.062;4.508;2023-02-28T17:29:57;5.22;;;2.00;;
72728;SDS011;60843;52.062;4.508;2023-02-28T17:32:22;4.65;;;2.13;;
72728;SDS011;60843;52.062;4.508;2023-02-28T17:34:48;2.75;;;1.73;;
72728;SDS011;60843;52.062;4.508;2023-02-28T17:37:14;4.88;;;2.30;;
72728;SDS011;60843;52.062;4.508;2023-02-28T17:39:39;10.45;;;2.60;;
72728;SDS011;60843;52.062;4.508;2023-02-28T17:42:05;5.95;;;2.80;;
72728;SDS011;60843;52.062;4.508;2023-02-28T17:44:33;3.35;;;2.20;;
72728;SDS011;60843;52.062;4.508;2023-02-28T17:46:59;4.40;;;2.60;;
72728;SDS011;60843;52.062;4.508;2023-02-28T17:49:24;4.97;;;2.35;;
72728;SDS011;60843;52.062;4.508;2023-02-28T17:51:50;3.08;;;2.22;;
72728;SDS011;60843;52.062;4.508;2023-02-28T17:54:15;5.25;;;2.40;;
72728;SDS011;60843;52.062;4.508;2023-02-28T17:56:41;4.85;;;2.35;;
72728;SDS011;60843;52.062;4.508;2023-02-28T18:01:35;4.78;;;2.45;;
72728;SDS011;60843;52.062;4.508;2023-02-28T18:04:01;4.47;;;2.05;;
72728;SDS011;60843;52.062;4.508;2023-02-28T18:06:43;4.35;;;2.33;;
72728;SDS011;60843;52.062;4.508;2023-02-28T18:09:16;4.85;;;2.35;;
72728;SDS011;60843;52.062;4.508;2023-02-28T18:11:43;4.97;;;2.45;;
72728;SDS011;60843;52.062;4.508;2023-02-28T18:14:14;4.15;;;2.72;;
72728;SDS011;60843;52.062;4.508;2023-02-28T18:16:41;5.43;;;2.80;;
72728;SDS011;60843;52.062;4.508;2023-02-28T18:19:07;5.43;;;3.25;;
72728;SDS011;60843;52.062;4.508;2023-02-28T18:21:42;4.72;;;2.38;;
72728;SDS011;60843;52.062;4.508;2023-02-28T18:24:09;9.68;;;4.18;;
72728;SDS011;60843;52.062;4.508;2023-02-28T18:26:35;4.57;;;2.92;;
72728;SDS011;60843;52.062;4.508;2023-02-28T18:29:01;5.03;;;3.28;;
72728;SDS011;60843;52.062;4.508;2023-02-28T18:31:27;4.40;;;2.47;;
72728;SDS011;60843;52.062;4.508;2023-02-28T18:33:52;4.00;;;2.78;;
72728;SDS011;60843;52.062;4.508;2023-02-28T18:36:19;5.20;;;2.90;;
72728;SDS011;60843;52.062;4.508;2023-02-28T18:38:46;5.07;;;2.83;;
72728;SDS011;60843;52.062;4.508;2023-02-28T18:41:12;7.63;;;3.10;;
72728;SDS011;60843;52.062;4.508;2023-02-28T18:43:38;3.83;;;2.85;;
72728;SDS011;60843;52.062;4.508;2023-02-28T18:46:09;7.18;;;3.55;;
72728;SDS011;60843;52.062;4.508;2023-02-28T18:48:36;9.95;;;3.25;;
72728;SDS011;60843;52.062;4.508;2023-02-28T18:51:06;4.97;;;2.80;;
72728;SDS011;60843;52.062;4.508;2023-02-28T18:53:40;5.97;;;3.28;;
72728;SDS011;60843;52.062;4.508;2023-02-28T18:56:06;8.32;;;3.22;;
72728;SDS011;60843;52.062;4.508;2023-02-28T18:58:33;5.43;;;3.50;;
72728;SDS011;60843;52.062;4.508;2023-02-28T19:00:59;4.72;;;3.42;;
72728;SDS011;60843;52.062;4.508;2023-02-28T19:03:25;6.70;;;3.65;;
72728;SDS011;60843;52.062;4.508;2023-02-28T19:05:54;7.00;;;3.55;;
72728;SDS011;60843;52.062;4.508;2023-02-28T19:08:21;13.70;;;6.90;;
72728;SDS011;60843;52.062;4.508;2023-02-28T19:10:47;11.77;;;6.18;;
72728;SDS011;60843;52.062;4.508;2023-02-28T19:13:13;18.45;;;8.35;;
72728;SDS011;60843;52.062;4.508;2023-02-28T19:15:38;11.73;;;5.55;;
72728;SDS011;60843;52.062;4.508;2023-02-28T19:18:04;10.73;;;5.10;;